-> Other stations

Playa Punta Salinas

Speed(max): 6.5(8.6)knots
Direction:60° ( ENE)
Temperature: 27.5°C
Arrived: 2022-05-17 19:32:09 AST

Past data:
hh:mmknots
Dir (°)
°C
19:30 7.6 10.3 ENE(62) 27.7
19:28 7 9.2 ENE(59) 27.7
19:26 7.6 10.3 ENE(62) 27.7
19:24 8.1 10.8 ENE(63) 27.5
19:22 7 9.2 ENE(59) 27.7
19:20 7.6 11.3 ENE(62) 27.7
19:18 7.6 9.2 ENE(59) 27.7
19:16 8.1 11.3 ENE(61) 27.7
19:14 9.2 10.8 ENE(58) 27.7
19:12 8.1 10.3 ENE(59) 27.7
19:10 9.2 11.9 ENE(65) 27.7
19:08 9.2 11.9 ENE(65) 27.7
19:06 10.3 13.5 ENE(63) 27.5
19:04 10.3 13.5 ENE(66) 27.7
15 min. averages:
hh:mmknots
Dir (°)
°C
19:30 7.6 11.3 ENE(61) 27.7
19:15 9.2 13.5 ENE(62) 27.7
19:00 8.6 11.9 ENE(60) 27.9
18:45 10.3 14.6 ENE(61) 28.4
18:30 11.3 15.7 ENE(60) 28.6
18:15 11.3 15.7 ENE(62) 29.0
18:00 12.4 17.8 ENE(64) 28.8
17:45 14.6 17.8 ENE(61) 28.6
17:30 14.6 18.9 ENE(62) 28.7
17:15 13.5 18.9 ENE(60) 29.1
17:00 12.4 16.7 ENE(61) 29.4
16:45 10.8 15.1 ENE(58) 29.7
16:30 12.4 17.3 ENE(61) 29.6
16:15 13 16.7 ENE(61) 29.5
16:00 13.5 18.4 ENE(60) 29.6
Stations at DO:
GoKite Kite Beach
La Boca
Playa Manatee
Playa Punta Salinas
Portillo
-> Other regions

Desktop view
Data provided by Holfuy.
© Holfuy Weather 2022